sensor_id;sensor_type;location;lat;lon;timestamp;P1;durP1;ratioP1;P2;durP2;ratioP2
53931;SDS011;39844;52.496;13.482;2023-04-29T00:00:11;7.27;;;2.60;;
53931;SDS011;39844;52.496;13.482;2023-04-29T00:02:37;2.47;;;2.27;;
53931;SDS011;39844;52.496;13.482;2023-04-29T00:05:02;2.70;;;2.40;;
53931;SDS011;39844;52.496;13.482;2023-04-29T00:07:28;2.50;;;2.30;;
53931;SDS011;39844;52.496;13.482;2023-04-29T00:09:53;2.40;;;2.30;;
53931;SDS011;39844;52.496;13.482;2023-04-29T00:12:19;2.53;;;2.40;;
53931;SDS011;39844;52.496;13.482;2023-04-29T00:14:44;3.97;;;2.63;;
53931;SDS011;39844;52.496;13.482;2023-04-29T00:17:09;3.10;;;2.63;;
53931;SDS011;39844;52.496;13.482;2023-04-29T00:19:35;3.93;;;2.77;;
53931;SDS011;39844;52.496;13.482;2023-04-29T00:22:00;2.33;;;2.13;;
53931;SDS011;39844;52.496;13.482;2023-04-29T00:24:26;2.43;;;2.23;;
53931;SDS011;39844;52.496;13.482;2023-04-29T00:26:51;2.53;;;2.37;;
53931;SDS011;39844;52.496;13.482;2023-04-29T00:29:17;3.97;;;2.50;;
53931;SDS011;39844;52.496;13.482;2023-04-29T00:31:42;2.77;;;2.57;;
53931;SDS011;39844;52.496;13.482;2023-04-29T00:34:08;4.20;;;3.37;;
53931;SDS011;39844;52.496;13.482;2023-04-29T00:36:33;2.40;;;2.20;;
53931;SDS011;39844;52.496;13.482;2023-04-29T00:38:58;5.30;;;3.10;;
53931;SDS011;39844;52.496;13.482;2023-04-29T00:41:24;3.37;;;3.07;;
53931;SDS011;39844;52.496;13.482;2023-04-29T00:43:50;3.00;;;2.80;;
53931;SDS011;39844;52.496;13.482;2023-04-29T00:46:15;2.43;;;2.33;;
53931;SDS011;39844;52.496;13.482;2023-04-29T00:48:40;2.57;;;2.40;;
53931;SDS011;39844;52.496;13.482;2023-04-29T00:51:06;2.83;;;2.60;;
53931;SDS011;39844;52.496;13.482;2023-04-29T00:53:32;11.30;;;2.80;;
53931;SDS011;39844;52.496;13.482;2023-04-29T00:55:58;3.57;;;2.60;;
53931;SDS011;39844;52.496;13.482;2023-04-29T00:58:25;2.83;;;2.53;;
53931;SDS011;39844;52.496;13.482;2023-04-29T01:00:50;2.80;;;2.57;;
53931;SDS011;39844;52.496;13.482;2023-04-29T01:03:16;3.00;;;2.73;;
53931;SDS011;39844;52.496;13.482;2023-04-29T01:05:43;2.70;;;2.50;;
53931;SDS011;39844;52.496;13.482;2023-04-29T01:08:25;2.83;;;2.53;;
53931;SDS011;39844;52.496;13.482;2023-04-29T01:11:08;2.83;;;2.50;;
53931;SDS011;39844;52.496;13.482;2023-04-29T01:16:05;2.53;;;2.33;;
53931;SDS011;39844;52.496;13.482;2023-04-29T01:18:36;3.07;;;2.60;;
53931;SDS011;39844;52.496;13.482;2023-04-29T01:21:05;3.47;;;2.47;;
53931;SDS011;39844;52.496;13.482;2023-04-29T01:23:30;3.40;;;3.10;;
53931;SDS011;39844;52.496;13.482;2023-04-29T01:25:56;5.73;;;3.00;;
53931;SDS011;39844;52.496;13.482;2023-04-29T01:28:29;2.90;;;2.70;;
53931;SDS011;39844;52.496;13.482;2023-04-29T01:39:43;3.37;;;2.87;;
53931;SDS011;39844;52.496;13.482;2023-04-29T01:44:50;3.77;;;2.87;;
53931;SDS011;39844;52.496;13.482;2023-04-29T01:47:19;3.77;;;2.87;;
53931;SDS011;39844;52.496;13.482;2023-04-29T01:49:44;3.10;;;2.90;;
53931;SDS011;39844;52.496;13.482;2023-04-29T01:52:10;3.87;;;3.23;;
53931;SDS011;39844;52.496;13.482;2023-04-29T01:54:35;3.77;;;3.40;;
53931;SDS011;39844;52.496;13.482;2023-04-29T01:57:01;3.63;;;3.33;;
53931;SDS011;39844;52.496;13.482;2023-04-29T01:59:27;3.37;;;3.10;;
53931;SDS011;39844;52.496;13.482;2023-04-29T02:01:52;3.50;;;3.20;;
53931;SDS011;39844;52.496;13.482;2023-04-29T02:04:17;4.10;;;3.00;;
53931;SDS011;39844;52.496;13.482;2023-04-29T02:06:43;3.33;;;3.00;;
53931;SDS011;39844;52.496;13.482;2023-04-29T02:09:08;3.50;;;2.90;;
53931;SDS011;39844;52.496;13.482;2023-04-29T02:11:34;3.30;;;3.00;;
53931;SDS011;39844;52.496;13.482;2023-04-29T02:13:59;3.20;;;3.00;;
53931;SDS011;39844;52.496;13.482;2023-04-29T02:16:24;3.50;;;3.20;;
53931;SDS011;39844;52.496;13.482;2023-04-29T02:18:50;3.50;;;3.20;;
53931;SDS011;39844;52.496;13.482;2023-04-29T02:21:15;4.97;;;2.70;;
53931;SDS011;39844;52.496;13.482;2023-04-29T02:23:40;5.20;;;2.87;;
53931;SDS011;39844;52.496;13.482;2023-04-29T02:26:05;3.50;;;3.20;;
53931;SDS011;39844;52.496;13.482;2023-04-29T02:28:31;3.83;;;3.53;;
53931;SDS011;39844;52.496;13.482;2023-04-29T02:30:59;5.27;;;3.00;;
53931;SDS011;39844;52.496;13.482;2023-04-29T02:33:24;3.73;;;3.43;;
53931;SDS011;39844;52.496;13.482;2023-04-29T02:35:50;3.43;;;3.00;;
53931;SDS011;39844;52.496;13.482;2023-04-29T02:38:15;3.27;;;2.97;;
53931;SDS011;39844;52.496;13.482;2023-04-29T02:40:41;3.90;;;3.00;;
53931;SDS011;39844;52.496;13.482;2023-04-29T02:43:07;4.23;;;3.20;;
53931;SDS011;39844;52.496;13.482;2023-04-29T02:45:32;4.63;;;3.73;;
53931;SDS011;39844;52.496;13.482;2023-04-29T02:47:57;3.83;;;3.53;;
53931;SDS011;39844;52.496;13.482;2023-04-29T02:50:22;5.83;;;3.33;;
53931;SDS011;39844;52.496;13.482;2023-04-29T02:52:48;3.90;;;3.50;;
53931;SDS011;39844;52.496;13.482;2023-04-29T02:55:13;3.63;;;3.13;;
53931;SDS011;39844;52.496;13.482;2023-04-29T02:57:38;3.33;;;3.10;;
53931;SDS011;39844;52.496;13.482;2023-04-29T03:00:04;3.80;;;3.50;;
53931;SDS011;39844;52.496;13.482;2023-04-29T03:02:30;3.90;;;3.60;;
53931;SDS011;39844;52.496;13.482;2023-04-29T03:04:55;4.90;;;3.90;;
53931;SDS011;39844;52.496;13.482;2023-04-29T03:07:21;4.17;;;3.67;;
53931;SDS011;39844;52.496;13.482;2023-04-29T03:09:46;3.50;;;3.20;;
53931;SDS011;39844;52.496;13.482;2023-04-29T03:12:11;3.27;;;2.97;;
53931;SDS011;39844;52.496;13.482;2023-04-29T03:14:36;4.03;;;3.57;;
53931;SDS011;39844;52.496;13.482;2023-04-29T03:17:02;3.57;;;3.00;;
53931;SDS011;39844;52.496;13.482;2023-04-29T03:19:27;6.03;;;3.80;;
53931;SDS011;39844;52.496;13.482;2023-04-29T03:21:52;5.47;;;3.40;;
53931;SDS011;39844;52.496;13.482;2023-04-29T03:24:18;3.80;;;3.50;;
53931;SDS011;39844;52.496;13.482;2023-04-29T03:26:43;5.17;;;3.33;;
53931;SDS011;39844;52.496;13.482;2023-04-29T03:29:08;3.77;;;3.47;;
53931;SDS011;39844;52.496;13.482;2023-04-29T03:31:33;5.13;;;3.70;;
53931;SDS011;39844;52.496;13.482;2023-04-29T03:33:59;4.10;;;3.70;;
53931;SDS011;39844;52.496;13.482;2023-04-29T03:36:24;4.10;;;3.70;;
53931;SDS011;39844;52.496;13.482;2023-04-29T03:38:49;4.57;;;3.63;;
53931;SDS011;39844;52.496;13.482;2023-04-29T03:41:15;3.90;;;3.53;;
53931;SDS011;39844;52.496;13.482;2023-04-29T03:43:41;4.33;;;3.63;;
53931;SDS011;39844;52.496;13.482;2023-04-29T03:46:06;7.17;;;4.13;;
53931;SDS011;39844;52.496;13.482;2023-04-29T03:48:31;7.13;;;3.80;;
53931;SDS011;39844;52.496;13.482;2023-04-29T03:50:57;4.13;;;3.73;;
53931;SDS011;39844;52.496;13.482;2023-04-29T03:53:22;4.37;;;3.97;;
53931;SDS011;39844;52.496;13.482;2023-04-29T03:55:47;6.23;;;4.43;;
53931;SDS011;39844;52.496;13.482;2023-04-29T03:58:13;4.40;;;4.00;;
53931;SDS011;39844;52.496;13.482;2023-04-29T04:00:38;6.33;;;4.20;;
53931;SDS011;39844;52.496;13.482;2023-04-29T04:03:03;5.03;;;4.17;;
53931;SDS011;39844;52.496;13.482;2023-04-29T04:05:29;3.87;;;3.47;;
53931;SDS011;39844;52.496;13.482;2023-04-29T04:07:54;4.20;;;3.90;;
53931;SDS011;39844;52.496;13.482;2023-04-29T04:10:19;5.77;;;4.03;;
53931;SDS011;39844;52.496;13.482;2023-04-29T04:12:44;4.40;;;4.00;;
53931;SDS011;39844;52.496;13.482;2023-04-29T04:15:10;5.30;;;4.30;;
53931;SDS011;39844;52.496;13.482;2023-04-29T04:17:35;4.27;;;3.90;;
53931;SDS011;39844;52.496;13.482;2023-04-29T04:20:00;4.80;;;4.30;;
53931;SDS011;39844;52.496;13.482;2023-04-29T04:22:26;7.50;;;4.27;;
53931;SDS011;39844;52.496;13.482;2023-04-29T04:24:53;7.43;;;4.53;;
53931;SDS011;39844;52.496;13.482;2023-04-29T04:27:19;4.97;;;4.57;;
53931;SDS011;39844;52.496;13.482;2023-04-29T04:29:44;10.57;;;4.27;;
53931;SDS011;39844;52.496;13.482;2023-04-29T04:32:10;5.10;;;4.07;;
53931;SDS011;39844;52.496;13.482;2023-04-29T04:34:35;5.50;;;4.47;;
53931;SDS011;39844;52.496;13.482;2023-04-29T04:37:01;5.37;;;4.73;;
53931;SDS011;39844;52.496;13.482;2023-04-29T04:39:26;5.17;;;4.67;;
53931;SDS011;39844;52.496;13.482;2023-04-29T04:41:51;6.63;;;4.50;;
53931;SDS011;39844;52.496;13.482;2023-04-29T04:44:17;5.83;;;4.60;;
53931;SDS011;39844;52.496;13.482;2023-04-29T04:46:42;5.97;;;4.50;;
53931;SDS011;39844;52.496;13.482;2023-04-29T04:49:07;5.60;;;4.60;;
53931;SDS011;39844;52.496;13.482;2023-04-29T04:51:32;5.27;;;4.73;;
53931;SDS011;39844;52.496;13.482;2023-04-29T04:53:58;4.30;;;4.00;;
53931;SDS011;39844;52.496;13.482;2023-04-29T04:56:23;6.40;;;4.87;;
53931;SDS011;39844;52.496;13.482;2023-04-29T04:58:48;5.47;;;4.63;;
53931;SDS011;39844;52.496;13.482;2023-04-29T05:01:14;6.13;;;5.23;;
53931;SDS011;39844;52.496;13.482;2023-04-29T05:03:39;7.10;;;5.03;;
53931;SDS011;39844;52.496;13.482;2023-04-29T05:06:04;5.17;;;4.67;;
53931;SDS011;39844;52.496;13.482;2023-04-29T05:08:30;6.63;;;5.40;;
53931;SDS011;39844;52.496;13.482;2023-04-29T05:10:55;5.80;;;4.43;;
53931;SDS011;39844;52.496;13.482;2023-04-29T05:13:20;5.93;;;5.10;;
53931;SDS011;39844;52.496;13.482;2023-04-29T05:15:46;7.23;;;5.03;;
53931;SDS011;39844;52.496;13.482;2023-04-29T05:18:11;9.00;;;6.17;;
53931;SDS011;39844;52.496;13.482;2023-04-29T05:20:36;5.37;;;4.87;;
53931;SDS011;39844;52.496;13.482;2023-04-29T05:23:02;5.63;;;4.97;;
53931;SDS011;39844;52.496;13.482;2023-04-29T05:25:27;6.73;;;5.37;;
53931;SDS011;39844;52.496;13.482;2023-04-29T05:27:53;9.70;;;5.90;;
53931;SDS011;39844;52.496;13.482;2023-04-29T05:30:18;7.93;;;5.60;;
53931;SDS011;39844;52.496;13.482;2023-04-29T05:32:44;9.20;;;6.33;;
53931;SDS011;39844;52.496;13.482;2023-04-29T05:35:09;7.33;;;5.90;;
53931;SDS011;39844;52.496;13.482;2023-04-29T05:37:34;6.87;;;6.17;;
53931;SDS011;39844;52.496;13.482;2023-04-29T05:40:00;9.33;;;6.07;;
53931;SDS011;39844;52.496;13.482;2023-04-29T05:42:25;8.40;;;6.33;;
53931;SDS011;39844;52.496;13.482;2023-04-29T05:44:50;8.67;;;6.07;;
53931;SDS011;39844;52.496;13.482;2023-04-29T05:47:16;11.67;;;6.67;;
53931;SDS011;39844;52.496;13.482;2023-04-29T05:49:41;10.33;;;6.30;;
53931;SDS011;39844;52.496;13.482;2023-04-29T05:52:06;10.20;;;6.40;;
53931;SDS011;39844;52.496;13.482;2023-04-29T05:54:32;9.80;;;6.03;;
53931;SDS011;39844;52.496;13.482;2023-04-29T05:56:58;9.37;;;6.13;;
53931;SDS011;39844;52.496;13.482;2023-04-29T05:59:24;11.43;;;6.93;;
53931;SDS011;39844;52.496;13.482;2023-04-29T06:01:49;8.63;;;6.30;;
53931;SDS011;39844;52.496;13.482;2023-04-29T06:04:15;9.13;;;6.13;;
53931;SDS011;39844;52.496;13.482;2023-04-29T06:06:40;9.60;;;6.90;;
53931;SDS011;39844;52.496;13.482;2023-04-29T06:09:05;8.73;;;6.37;;
53931;SDS011;39844;52.496;13.482;2023-04-29T06:11:31;9.30;;;6.30;;
53931;SDS011;39844;52.496;13.482;2023-04-29T06:13:56;8.03;;;6.40;;
53931;SDS011;39844;52.496;13.482;2023-04-29T06:16:21;8.17;;;5.97;;
53931;SDS011;39844;52.496;13.482;2023-04-29T06:18:46;10.87;;;7.27;;
53931;SDS011;39844;52.496;13.482;2023-04-29T06:21:12;8.83;;;6.43;;
53931;SDS011;39844;52.496;13.482;2023-04-29T06:23:37;9.90;;;5.93;;
53931;SDS011;39844;52.496;13.482;2023-04-29T06:26:02;9.73;;;6.37;;
53931;SDS011;39844;52.496;13.482;2023-04-29T06:28:28;7.97;;;6.27;;
53931;SDS011;39844;52.496;13.482;2023-04-29T06:30:53;8.73;;;5.73;;
53931;SDS011;39844;52.496;13.482;2023-04-29T06:33:18;9.83;;;6.40;;
53931;SDS011;39844;52.496;13.482;2023-04-29T06:35:43;10.60;;;6.87;;
53931;SDS011;39844;52.496;13.482;2023-04-29T06:38:09;13.53;;;7.43;;
53931;SDS011;39844;52.496;13.482;2023-04-29T06:40:34;9.27;;;6.57;;
53931;SDS011;39844;52.496;13.482;2023-04-29T06:42:59;9.17;;;6.67;;
53931;SDS011;39844;52.496;13.482;2023-04-29T06:45:25;8.90;;;6.53;;
53931;SDS011;39844;52.496;13.482;2023-04-29T06:47:50;7.47;;;5.80;;
53931;SDS011;39844;52.496;13.482;2023-04-29T06:50:15;7.70;;;5.93;;
53931;SDS011;39844;52.496;13.482;2023-04-29T06:52:40;6.80;;;5.63;;
53931;SDS011;39844;52.496;13.482;2023-04-29T06:55:06;8.30;;;6.03;;
53931;SDS011;39844;52.496;13.482;2023-04-29T06:57:32;8.27;;;6.23;;
53931;SDS011;39844;52.496;13.482;2023-04-29T06:59:57;10.93;;;6.17;;
53931;SDS011;39844;52.496;13.482;2023-04-29T07:02:22;11.00;;;6.30;;
53931;SDS011;39844;52.496;13.482;2023-04-29T07:04:47;8.43;;;5.97;;
53931;SDS011;39844;52.496;13.482;2023-04-29T07:07:13;10.33;;;6.00;;
53931;SDS011;39844;52.496;13.482;2023-04-29T07:09:38;8.60;;;5.57;;
53931;SDS011;39844;52.496;13.482;2023-04-29T07:12:03;8.40;;;5.23;;
53931;SDS011;39844;52.496;13.482;2023-04-29T07:14:29;6.63;;;4.87;;
53931;SDS011;39844;52.496;13.482;2023-04-29T07:16:54;7.97;;;4.83;;
53931;SDS011;39844;52.496;13.482;2023-04-29T07:19:19;7.07;;;5.03;;
53931;SDS011;39844;52.496;13.482;2023-04-29T07:21:45;7.07;;;5.17;;
53931;SDS011;39844;52.496;13.482;2023-04-29T07:24:10;6.33;;;5.00;;
53931;SDS011;39844;52.496;13.482;2023-04-29T07:26:35;6.77;;;5.10;;
53931;SDS011;39844;52.496;13.482;2023-04-29T07:29:01;8.23;;;5.33;;
53931;SDS011;39844;52.496;13.482;2023-04-29T07:31:26;7.63;;;4.47;;
53931;SDS011;39844;52.496;13.482;2023-04-29T07:33:52;5.37;;;4.23;;
53931;SDS011;39844;52.496;13.482;2023-04-29T07:36:17;7.07;;;4.77;;
53931;SDS011;39844;52.496;13.482;2023-04-29T07:38:42;6.43;;;4.47;;
53931;SDS011;39844;52.496;13.482;2023-04-29T07:41:08;6.53;;;4.73;;
53931;SDS011;39844;52.496;13.482;2023-04-29T07:43:33;6.20;;;4.20;;
53931;SDS011;39844;52.496;13.482;2023-04-29T07:45:58;6.47;;;4.87;;
53931;SDS011;39844;52.496;13.482;2023-04-29T07:48:24;6.47;;;5.07;;
53931;SDS011;39844;52.496;13.482;2023-04-29T07:50:49;7.33;;;4.93;;
53931;SDS011;39844;52.496;13.482;2023-04-29T07:53:14;5.97;;;4.93;;
53931;SDS011;39844;52.496;13.482;2023-04-29T07:55:39;7.53;;;4.63;;
53931;SDS011;39844;52.496;13.482;2023-04-29T07:58:05;5.97;;;4.67;;
53931;SDS011;39844;52.496;13.482;2023-04-29T08:00:30;6.53;;;5.00;;
53931;SDS011;39844;52.496;13.482;2023-04-29T08:02:55;7.47;;;4.93;;
53931;SDS011;39844;52.496;13.482;2023-04-29T08:05:21;5.73;;;4.67;;
53931;SDS011;39844;52.496;13.482;2023-04-29T08:07:47;5.27;;;4.13;;
53931;SDS011;39844;52.496;13.482;2023-04-29T08:10:13;6.47;;;5.07;;
53931;SDS011;39844;52.496;13.482;2023-04-29T08:12:39;5.33;;;4.57;;
53931;SDS011;39844;52.496;13.482;2023-04-29T08:15:05;5.07;;;4.30;;
53931;SDS011;39844;52.496;13.482;2023-04-29T08:17:31;5.13;;;4.20;;
53931;SDS011;39844;52.496;13.482;2023-04-29T08:19:56;6.80;;;4.50;;
53931;SDS011;39844;52.496;13.482;2023-04-29T08:22:21;4.80;;;4.30;;
53931;SDS011;39844;52.496;13.482;2023-04-29T08:24:46;5.17;;;4.33;;
53931;SDS011;39844;52.496;13.482;2023-04-29T08:27:12;6.13;;;4.37;;
53931;SDS011;39844;52.496;13.482;2023-04-29T08:29:37;5.50;;;3.93;;
53931;SDS011;39844;52.496;13.482;2023-04-29T08:32:02;5.10;;;4.03;;
53931;SDS011;39844;52.496;13.482;2023-04-29T08:34:29;5.30;;;4.33;;
53931;SDS011;39844;52.496;13.482;2023-04-29T08:36:55;5.73;;;4.53;;
53931;SDS011;39844;52.496;13.482;2023-04-29T08:39:21;6.43;;;4.77;;
53931;SDS011;39844;52.496;13.482;2023-04-29T08:41:46;5.63;;;4.37;;
53931;SDS011;39844;52.496;13.482;2023-04-29T08:44:12;5.30;;;4.80;;
53931;SDS011;39844;52.496;13.482;2023-04-29T08:46:37;5.33;;;4.83;;
53931;SDS011;39844;52.496;13.482;2023-04-29T08:49:03;4.80;;;3.97;;
53931;SDS011;39844;52.496;13.482;2023-04-29T08:51:28;5.20;;;4.67;;
53931;SDS011;39844;52.496;13.482;2023-04-29T08:53:55;5.10;;;4.60;;
53931;SDS011;39844;52.496;13.482;2023-04-29T08:56:20;5.60;;;4.30;;
53931;SDS011;39844;52.496;13.482;2023-04-29T08:58:46;7.23;;;4.83;;
53931;SDS011;39844;52.496;13.482;2023-04-29T09:01:14;6.47;;;4.77;;
53931;SDS011;39844;52.496;13.482;2023-04-29T09:03:49;6.70;;;4.33;;
53931;SDS011;39844;52.496;13.482;2023-04-29T09:06:22;4.60;;;4.17;;
53931;SDS011;39844;52.496;13.482;2023-04-29T09:08:47;6.17;;;4.73;;
53931;SDS011;39844;52.496;13.482;2023-04-29T09:11:13;6.47;;;4.93;;
53931;SDS011;39844;52.496;13.482;2023-04-29T09:13:39;8.77;;;5.40;;
53931;SDS011;39844;52.496;13.482;2023-04-29T09:16:09;5.23;;;4.70;;
53931;SDS011;39844;52.496;13.482;2023-04-29T09:18:42;11.20;;;6.20;;
53931;SDS011;39844;52.496;13.482;2023-04-29T09:23:37;8.37;;;5.97;;
53931;SDS011;39844;52.496;13.482;2023-04-29T09:26:03;13.13;;;7.13;;
53931;SDS011;39844;52.496;13.482;2023-04-29T09:28:28;13.23;;;6.70;;
53931;SDS011;39844;52.496;13.482;2023-04-29T09:30:53;14.90;;;7.70;;
53931;SDS011;39844;52.496;13.482;2023-04-29T09:33:19;11.97;;;7.23;;
53931;SDS011;39844;52.496;13.482;2023-04-29T09:35:44;11.50;;;6.80;;
53931;SDS011;39844;52.496;13.482;2023-04-29T09:38:11;11.27;;;6.40;;
53931;SDS011;39844;52.496;13.482;2023-04-29T09:40:37;12.47;;;6.87;;
53931;SDS011;39844;52.496;13.482;2023-04-29T09:43:03;10.90;;;7.40;;
53931;SDS011;39844;52.496;13.482;2023-04-29T09:45:37;11.30;;;7.30;;
53931;SDS011;39844;52.496;13.482;2023-04-29T09:48:04;11.53;;;7.63;;
53931;SDS011;39844;52.496;13.482;2023-04-29T09:50:31;12.27;;;7.50;;
53931;SDS011;39844;52.496;13.482;2023-04-29T09:52:57;10.47;;;6.70;;
53931;SDS011;39844;52.496;13.482;2023-04-29T09:55:23;13.27;;;7.30;;
53931;SDS011;39844;52.496;13.482;2023-04-29T09:57:48;14.77;;;8.57;;
53931;SDS011;39844;52.496;13.482;2023-04-29T10:00:14;12.63;;;7.30;;
53931;SDS011;39844;52.496;13.482;2023-04-29T10:02:43;13.13;;;7.50;;
53931;SDS011;39844;52.496;13.482;2023-04-29T10:05:10;11.70;;;7.50;;
53931;SDS011;39844;52.496;13.482;2023-04-29T10:07:37;14.93;;;8.07;;
53931;SDS011;39844;52.496;13.482;2023-04-29T10:10:03;10.30;;;7.67;;
53931;SDS011;39844;52.496;13.482;2023-04-29T10:12:30;12.73;;;8.20;;
53931;SDS011;39844;52.496;13.482;2023-04-29T10:17:51;19.30;;;10.83;;
53931;SDS011;39844;52.496;13.482;2023-04-29T10:20:20;18.57;;;10.17;;
53931;SDS011;39844;52.496;13.482;2023-04-29T10:22:47;22.53;;;10.47;;
53931;SDS011;39844;52.496;13.482;2023-04-29T10:25:16;21.60;;;12.40;;
53931;SDS011;39844;52.496;13.482;2023-04-29T10:27:45;20.07;;;10.77;;
53931;SDS011;39844;52.496;13.482;2023-04-29T10:30:12;19.73;;;11.03;;
53931;SDS011;39844;52.496;13.482;2023-04-29T10:32:42;16.13;;;10.70;;
53931;SDS011;39844;52.496;13.482;2023-04-29T10:35:09;21.93;;;12.23;;
53931;SDS011;39844;52.496;13.482;2023-04-29T10:37:35;22.67;;;11.67;;
53931;SDS011;39844;52.496;13.482;2023-04-29T10:40:11;25.20;;;13.90;;
53931;SDS011;39844;52.496;13.482;2023-04-29T10:50:28;26.27;;;12.13;;
53931;SDS011;39844;52.496;13.482;2023-04-29T10:52:54;20.13;;;11.67;;
53931;SDS011;39844;52.496;13.482;2023-04-29T10:55:21;16.53;;;11.00;;
53931;SDS011;39844;52.496;13.482;2023-04-29T10:57:47;21.47;;;11.47;;
53931;SDS011;39844;52.496;13.482;2023-04-29T11:00:25;20.93;;;11.00;;
53931;SDS011;39844;52.496;13.482;2023-04-29T11:02:52;22.90;;;12.83;;
53931;SDS011;39844;52.496;13.482;2023-04-29T11:05:18;16.47;;;11.23;;
53931;SDS011;39844;52.496;13.482;2023-04-29T11:08:10;16.43;;;10.40;;
53931;SDS011;39844;52.496;13.482;2023-04-29T11:10:36;14.30;;;9.63;;
53931;SDS011;39844;52.496;13.482;2023-04-29T11:13:27;14.87;;;10.10;;
53931;SDS011;39844;52.496;13.482;2023-04-29T11:16:10;14.33;;;10.37;;
53931;SDS011;39844;52.496;13.482;2023-04-29T11:18:36;13.03;;;9.27;;
53931;SDS011;39844;52.496;13.482;2023-04-29T11:21:28;14.60;;;9.70;;
53931;SDS011;39844;52.496;13.482;2023-04-29T11:23:53;14.80;;;9.40;;
53931;SDS011;39844;52.496;13.482;2023-04-29T11:26:19;13.47;;;9.50;;
53931;SDS011;39844;52.496;13.482;2023-04-29T11:28:44;14.67;;;9.60;;
53931;SDS011;39844;52.496;13.482;2023-04-29T11:31:10;16.17;;;8.93;;
53931;SDS011;39844;52.496;13.482;2023-04-29T11:33:35;13.57;;;9.27;;
53931;SDS011;39844;52.496;13.482;2023-04-29T11:36:00;13.70;;;8.63;;
53931;SDS011;39844;52.496;13.482;2023-04-29T11:38:27;15.57;;;8.63;;
53931;SDS011;39844;52.496;13.482;2023-04-29T11:40:53;12.97;;;8.93;;
53931;SDS011;39844;52.496;13.482;2023-04-29T11:43:19;12.70;;;9.07;;
53931;SDS011;39844;52.496;13.482;2023-04-29T11:45:46;12.40;;;7.70;;
53931;SDS011;39844;52.496;13.482;2023-04-29T11:48:18;13.23;;;8.50;;
53931;SDS011;39844;52.496;13.482;2023-04-29T11:50:45;12.17;;;8.17;;
53931;SDS011;39844;52.496;13.482;2023-04-29T11:53:12;12.57;;;7.43;;
53931;SDS011;39844;52.496;13.482;2023-04-29T11:55:38;9.90;;;7.17;;
53931;SDS011;39844;52.496;13.482;2023-04-29T11:58:06;10.73;;;7.00;;
53931;SDS011;39844;52.496;13.482;2023-04-29T12:00:31;12.27;;;7.23;;
53931;SDS011;39844;52.496;13.482;2023-04-29T12:02:57;10.80;;;7.57;;
53931;SDS011;39844;52.496;13.482;2023-04-29T12:05:24;8.83;;;6.87;;
53931;SDS011;39844;52.496;13.482;2023-04-29T12:07:50;8.03;;;6.77;;
53931;SDS011;39844;52.496;13.482;2023-04-29T12:10:15;6.43;;;5.80;;
53931;SDS011;39844;52.496;13.482;2023-04-29T12:12:41;10.17;;;6.53;;
53931;SDS011;39844;52.496;13.482;2023-04-29T12:15:07;8.20;;;6.43;;
53931;SDS011;39844;52.496;13.482;2023-04-29T12:17:34;7.70;;;6.47;;
53931;SDS011;39844;52.496;13.482;2023-04-29T12:19:59;8.80;;;6.00;;
53931;SDS011;39844;52.496;13.482;2023-04-29T12:22:31;9.80;;;6.70;;
53931;SDS011;39844;52.496;13.482;2023-04-29T12:24:56;7.07;;;5.60;;
53931;SDS011;39844;52.496;13.482;2023-04-29T12:27:22;7.53;;;6.13;;
53931;SDS011;39844;52.496;13.482;2023-04-29T12:29:48;7.10;;;6.13;;
53931;SDS011;39844;52.496;13.482;2023-04-29T12:32:16;8.60;;;6.40;;
53931;SDS011;39844;52.496;13.482;2023-04-29T12:34:45;7.40;;;5.77;;
53931;SDS011;39844;52.496;13.482;2023-04-29T12:37:11;6.03;;;5.43;;
53931;SDS011;39844;52.496;13.482;2023-04-29T12:39:36;5.20;;;4.70;;
53931;SDS011;39844;52.496;13.482;2023-04-29T12:42:01;7.90;;;5.73;;
53931;SDS011;39844;52.496;13.482;2023-04-29T12:44:34;11.97;;;6.20;;
53931;SDS011;39844;52.496;13.482;2023-04-29T12:47:08;8.87;;;5.67;;
53931;SDS011;39844;52.496;13.482;2023-04-29T12:49:44;8.63;;;5.00;;
53931;SDS011;39844;52.496;13.482;2023-04-29T12:52:11;6.10;;;4.73;;
53931;SDS011;39844;52.496;13.482;2023-04-29T12:54:39;12.10;;;5.03;;
53931;SDS011;39844;52.496;13.482;2023-04-29T12:57:05;7.63;;;4.60;;
53931;SDS011;39844;52.496;13.482;2023-04-29T12:59:30;6.77;;;4.80;;
53931;SDS011;39844;52.496;13.482;2023-04-29T13:01:56;5.23;;;4.37;;
53931;SDS011;39844;52.496;13.482;2023-04-29T13:04:21;9.13;;;4.90;;
53931;SDS011;39844;52.496;13.482;2023-04-29T13:06:46;6.30;;;4.70;;
53931;SDS011;39844;52.496;13.482;2023-04-29T13:09:12;9.23;;;4.87;;
53931;SDS011;39844;52.496;13.482;2023-04-29T13:11:37;5.10;;;4.60;;
53931;SDS011;39844;52.496;13.482;2023-04-29T13:14:03;5.70;;;4.00;;
53931;SDS011;39844;52.496;13.482;2023-04-29T13:16:29;6.30;;;4.10;;
53931;SDS011;39844;52.496;13.482;2023-04-29T13:18:54;5.63;;;4.03;;
53931;SDS011;39844;52.496;13.482;2023-04-29T13:21:19;4.33;;;3.93;;
53931;SDS011;39844;52.496;13.482;2023-04-29T13:23:45;5.67;;;4.40;;
53931;SDS011;39844;52.496;13.482;2023-04-29T13:26:10;4.07;;;3.77;;
53931;SDS011;39844;52.496;13.482;2023-04-29T13:28:35;5.23;;;4.07;;
53931;SDS011;39844;52.496;13.482;2023-04-29T13:31:00;3.83;;;3.40;;
53931;SDS011;39844;52.496;13.482;2023-04-29T13:33:26;5.50;;;3.90;;
53931;SDS011;39844;52.496;13.482;2023-04-29T13:35:51;3.80;;;3.50;;
53931;SDS011;39844;52.496;13.482;2023-04-29T13:38:16;4.00;;;3.40;;
53931;SDS011;39844;52.496;13.482;2023-04-29T13:40:42;5.23;;;3.70;;
53931;SDS011;39844;52.496;13.482;2023-04-29T13:43:07;3.60;;;3.30;;
53931;SDS011;39844;52.496;13.482;2023-04-29T13:45:32;3.70;;;3.40;;
53931;SDS011;39844;52.496;13.482;2023-04-29T13:47:58;3.30;;;2.97;;
53931;SDS011;39844;52.496;13.482;2023-04-29T13:50:23;4.70;;;3.27;;
53931;SDS011;39844;52.496;13.482;2023-04-29T13:52:48;3.07;;;2.77;;
53931;SDS011;39844;52.496;13.482;2023-04-29T13:55:13;3.43;;;3.13;;
53931;SDS011;39844;52.496;13.482;2023-04-29T13:57:39;4.23;;;3.17;;
53931;SDS011;39844;52.496;13.482;2023-04-29T14:00:04;4.47;;;3.70;;
53931;SDS011;39844;52.496;13.482;2023-04-29T14:02:30;3.47;;;3.13;;
53931;SDS011;39844;52.496;13.482;2023-04-29T14:04:55;4.97;;;3.50;;
53931;SDS011;39844;52.496;13.482;2023-04-29T14:07:21;4.40;;;3.60;;
53931;SDS011;39844;52.496;13.482;2023-04-29T14:09:46;5.20;;;3.40;;
53931;SDS011;39844;52.496;13.482;2023-04-29T14:12:11;5.07;;;3.60;;
53931;SDS011;39844;52.496;13.482;2023-04-29T14:14:36;4.43;;;4.03;;
53931;SDS011;39844;52.496;13.482;2023-04-29T14:17:02;3.73;;;3.43;;
53931;SDS011;39844;52.496;13.482;2023-04-29T14:19:27;5.47;;;3.97;;
53931;SDS011;39844;52.496;13.482;2023-04-29T14:21:52;4.00;;;3.70;;
53931;SDS011;39844;52.496;13.482;2023-04-29T14:24:18;5.40;;;4.17;;
53931;SDS011;39844;52.496;13.482;2023-04-29T14:26:43;4.33;;;3.93;;
53931;SDS011;39844;52.496;13.482;2023-04-29T14:29:08;7.37;;;3.90;;
53931;SDS011;39844;52.496;13.482;2023-04-29T14:31:34;4.70;;;3.50;;
53931;SDS011;39844;52.496;13.482;2023-04-29T14:33:59;3.57;;;3.27;;
53931;SDS011;39844;52.496;13.482;2023-04-29T14:36:25;5.57;;;4.17;;
53931;SDS011;39844;52.496;13.482;2023-04-29T14:38:50;6.07;;;3.67;;
53931;SDS011;39844;52.496;13.482;2023-04-29T14:41:16;6.40;;;3.97;;
53931;SDS011;39844;52.496;13.482;2023-04-29T14:43:41;5.17;;;4.27;;
53931;SDS011;39844;52.496;13.482;2023-04-29T14:46:07;6.33;;;3.80;;
53931;SDS011;39844;52.496;13.482;2023-04-29T14:48:33;4.10;;;3.70;;
53931;SDS011;39844;52.496;13.482;2023-04-29T14:50:59;4.77;;;3.53;;